sensor_id;sensor_type;location;lat;lon;timestamp;P1;durP1;ratioP1;P2;durP2;ratioP2
5876;SDS011;2964;42.144;24.730;2023-07-30T00:01:49;8.40;;;7.63;;
5876;SDS011;2964;42.144;24.730;2023-07-30T00:04:16;8.98;;;8.02;;
5876;SDS011;2964;42.144;24.730;2023-07-30T00:06:42;8.65;;;8.05;;
5876;SDS011;2964;42.144;24.730;2023-07-30T00:09:09;7.90;;;7.40;;
5876;SDS011;2964;42.144;24.730;2023-07-30T00:11:37;8.60;;;7.93;;
5876;SDS011;2964;42.144;24.730;2023-07-30T00:14:04;8.63;;;7.93;;
5876;SDS011;2964;42.144;24.730;2023-07-30T00:16:31;8.52;;;7.75;;
5876;SDS011;2964;42.144;24.730;2023-07-30T00:18:58;8.95;;;8.15;;
5876;SDS011;2964;42.144;24.730;2023-07-30T00:21:24;8.68;;;7.88;;
5876;SDS011;2964;42.144;24.730;2023-07-30T00:23:51;8.23;;;7.57;;
5876;SDS011;2964;42.144;24.730;2023-07-30T00:26:18;7.88;;;7.47;;
5876;SDS011;2964;42.144;24.730;2023-07-30T00:28:46;8.23;;;7.60;;
5876;SDS011;2964;42.144;24.730;2023-07-30T00:31:13;8.65;;;7.97;;
5876;SDS011;2964;42.144;24.730;2023-07-30T00:33:39;8.30;;;7.70;;
5876;SDS011;2964;42.144;24.730;2023-07-30T00:36:06;8.63;;;7.72;;
5876;SDS011;2964;42.144;24.730;2023-07-30T00:38:33;9.70;;;7.95;;
5876;SDS011;2964;42.144;24.730;2023-07-30T00:40:59;7.85;;;7.30;;
5876;SDS011;2964;42.144;24.730;2023-07-30T00:43:26;9.17;;;8.40;;
5876;SDS011;2964;42.144;24.730;2023-07-30T00:45:54;7.97;;;7.33;;
5876;SDS011;2964;42.144;24.730;2023-07-30T00:48:21;8.52;;;7.35;;
5876;SDS011;2964;42.144;24.730;2023-07-30T00:50:48;8.35;;;7.60;;
5876;SDS011;2964;42.144;24.730;2023-07-30T00:53:15;8.73;;;7.88;;
5876;SDS011;2964;42.144;24.730;2023-07-30T00:55:44;7.97;;;7.57;;
5876;SDS011;2964;42.144;24.730;2023-07-30T00:58:11;8.13;;;7.23;;
5876;SDS011;2964;42.144;24.730;2023-07-30T01:00:38;8.45;;;7.75;;
5876;SDS011;2964;42.144;24.730;2023-07-30T01:03:06;9.00;;;8.20;;
5876;SDS011;2964;42.144;24.730;2023-07-30T01:05:33;8.77;;;8.07;;
5876;SDS011;2964;42.144;24.730;2023-07-30T01:08:00;8.83;;;7.50;;
5876;SDS011;2964;42.144;24.730;2023-07-30T01:10:27;8.50;;;7.90;;
5876;SDS011;2964;42.144;24.730;2023-07-30T01:12:58;8.87;;;7.13;;
5876;SDS011;2964;42.144;24.730;2023-07-30T01:15:26;8.27;;;7.63;;
5876;SDS011;2964;42.144;24.730;2023-07-30T01:17:53;8.32;;;7.63;;
5876;SDS011;2964;42.144;24.730;2023-07-30T01:20:21;9.45;;;8.07;;
5876;SDS011;2964;42.144;24.730;2023-07-30T01:22:50;8.23;;;7.35;;
5876;SDS011;2964;42.144;24.730;2023-07-30T01:25:17;8.43;;;7.67;;
5876;SDS011;2964;42.144;24.730;2023-07-30T01:27:48;8.68;;;7.55;;
5876;SDS011;2964;42.144;24.730;2023-07-30T01:30:19;7.93;;;7.43;;
5876;SDS011;2964;42.144;24.730;2023-07-30T01:32:51;7.35;;;6.95;;
5876;SDS011;2964;42.144;24.730;2023-07-30T01:35:19;7.68;;;7.07;;
5876;SDS011;2964;42.144;24.730;2023-07-30T01:37:47;8.40;;;7.68;;
5876;SDS011;2964;42.144;24.730;2023-07-30T01:40:15;8.03;;;7.43;;
5876;SDS011;2964;42.144;24.730;2023-07-30T01:42:42;8.60;;;8.07;;
5876;SDS011;2964;42.144;24.730;2023-07-30T01:45:08;8.43;;;7.60;;
5876;SDS011;2964;42.144;24.730;2023-07-30T01:47:35;13.70;;;7.97;;
5876;SDS011;2964;42.144;24.730;2023-07-30T01:50:02;8.53;;;7.63;;
5876;SDS011;2964;42.144;24.730;2023-07-30T01:52:29;9.35;;;8.60;;
5876;SDS011;2964;42.144;24.730;2023-07-30T01:54:56;9.88;;;7.75;;
5876;SDS011;2964;42.144;24.730;2023-07-30T01:57:25;9.03;;;8.23;;
5876;SDS011;2964;42.144;24.730;2023-07-30T01:59:51;9.50;;;7.43;;
5876;SDS011;2964;42.144;24.730;2023-07-30T02:02:18;8.10;;;7.22;;
5876;SDS011;2964;42.144;24.730;2023-07-30T02:04:45;7.87;;;7.20;;
5876;SDS011;2964;42.144;24.730;2023-07-30T02:07:11;7.97;;;7.47;;
5876;SDS011;2964;42.144;24.730;2023-07-30T02:09:38;9.17;;;7.90;;
5876;SDS011;2964;42.144;24.730;2023-07-30T02:12:05;8.37;;;7.77;;
5876;SDS011;2964;42.144;24.730;2023-07-30T02:14:34;8.87;;;8.30;;
5876;SDS011;2964;42.144;24.730;2023-07-30T02:17:00;8.50;;;7.80;;
5876;SDS011;2964;42.144;24.730;2023-07-30T02:19:27;9.90;;;7.63;;
5876;SDS011;2964;42.144;24.730;2023-07-30T02:21:53;9.07;;;8.30;;
5876;SDS011;2964;42.144;24.730;2023-07-30T02:24:20;8.23;;;7.57;;
5876;SDS011;2964;42.144;24.730;2023-07-30T02:26:47;8.93;;;8.23;;
5876;SDS011;2964;42.144;24.730;2023-07-30T02:29:13;7.57;;;7.07;;
5876;SDS011;2964;42.144;24.730;2023-07-30T02:31:41;8.20;;;7.70;;
5876;SDS011;2964;42.144;24.730;2023-07-30T02:34:08;9.10;;;8.40;;
5876;SDS011;2964;42.144;24.730;2023-07-30T02:36:35;8.83;;;7.97;;
5876;SDS011;2964;42.144;24.730;2023-07-30T02:39:02;8.60;;;8.03;;
5876;SDS011;2964;42.144;24.730;2023-07-30T02:41:29;7.87;;;7.37;;
5876;SDS011;2964;42.144;24.730;2023-07-30T02:43:55;7.67;;;7.00;;
5876;SDS011;2964;42.144;24.730;2023-07-30T02:46:22;12.40;;;7.70;;
5876;SDS011;2964;42.144;24.730;2023-07-30T02:48:50;9.27;;;6.93;;
5876;SDS011;2964;42.144;24.730;2023-07-30T02:51:16;7.80;;;7.07;;
5876;SDS011;2964;42.144;24.730;2023-07-30T02:53:43;7.73;;;7.13;;
5876;SDS011;2964;42.144;24.730;2023-07-30T02:56:10;19.30;;;8.87;;
5876;SDS011;2964;42.144;24.730;2023-07-30T02:58:37;7.93;;;7.17;;
5876;SDS011;2964;42.144;24.730;2023-07-30T03:01:07;8.97;;;7.00;;
5876;SDS011;2964;42.144;24.730;2023-07-30T03:03:34;10.10;;;8.50;;
5876;SDS011;2964;42.144;24.730;2023-07-30T03:06:02;9.40;;;8.63;;
5876;SDS011;2964;42.144;24.730;2023-07-30T03:08:29;10.37;;;8.47;;
5876;SDS011;2964;42.144;24.730;2023-07-30T03:10:57;9.53;;;8.60;;
5876;SDS011;2964;42.144;24.730;2023-07-30T03:13:24;8.40;;;7.57;;
5876;SDS011;2964;42.144;24.730;2023-07-30T03:15:51;7.93;;;7.27;;
5876;SDS011;2964;42.144;24.730;2023-07-30T03:18:17;7.63;;;7.07;;
5876;SDS011;2964;42.144;24.730;2023-07-30T03:20:44;12.90;;;7.30;;
5876;SDS011;2964;42.144;24.730;2023-07-30T03:23:12;8.03;;;6.77;;
5876;SDS011;2964;42.144;24.730;2023-07-30T03:25:39;7.17;;;6.57;;
5876;SDS011;2964;42.144;24.730;2023-07-30T03:28:05;10.33;;;7.43;;
5876;SDS011;2964;42.144;24.730;2023-07-30T03:30:32;11.40;;;7.00;;
5876;SDS011;2964;42.144;24.730;2023-07-30T03:32:59;6.83;;;6.33;;
5876;SDS011;2964;42.144;24.730;2023-07-30T03:35:25;6.83;;;6.40;;
5876;SDS011;2964;42.144;24.730;2023-07-30T03:37:52;11.30;;;6.23;;
5876;SDS011;2964;42.144;24.730;2023-07-30T03:40:20;7.20;;;6.70;;
5876;SDS011;2964;42.144;24.730;2023-07-30T03:42:46;7.37;;;6.67;;
5876;SDS011;2964;42.144;24.730;2023-07-30T03:45:13;7.03;;;6.47;;
5876;SDS011;2964;42.144;24.730;2023-07-30T03:47:40;7.50;;;6.90;;
5876;SDS011;2964;42.144;24.730;2023-07-30T03:50:07;6.60;;;6.00;;
5876;SDS011;2964;42.144;24.730;2023-07-30T03:52:34;7.23;;;6.53;;
5876;SDS011;2964;42.144;24.730;2023-07-30T03:55:00;6.30;;;5.80;;
5876;SDS011;2964;42.144;24.730;2023-07-30T03:57:28;6.63;;;6.23;;
5876;SDS011;2964;42.144;24.730;2023-07-30T03:59:55;7.90;;;6.90;;
5876;SDS011;2964;42.144;24.730;2023-07-30T04:02:22;6.40;;;6.00;;
5876;SDS011;2964;42.144;24.730;2023-07-30T04:04:48;6.93;;;6.43;;
5876;SDS011;2964;42.144;24.730;2023-07-30T04:07:15;6.63;;;6.17;;
5876;SDS011;2964;42.144;24.730;2023-07-30T04:09:42;7.27;;;6.77;;
5876;SDS011;2964;42.144;24.730;2023-07-30T04:12:08;7.10;;;6.60;;
5876;SDS011;2964;42.144;24.730;2023-07-30T04:14:37;7.30;;;6.90;;
5876;SDS011;2964;42.144;24.730;2023-07-30T04:17:03;7.00;;;6.40;;
5876;SDS011;2964;42.144;24.730;2023-07-30T04:19:30;7.67;;;7.17;;
5876;SDS011;2964;42.144;24.730;2023-07-30T04:21:57;6.53;;;5.97;;
5876;SDS011;2964;42.144;24.730;2023-07-30T04:24:23;6.53;;;6.13;;
5876;SDS011;2964;42.144;24.730;2023-07-30T04:26:51;7.47;;;6.73;;
5876;SDS011;2964;42.144;24.730;2023-07-30T04:29:17;7.27;;;6.73;;
5876;SDS011;2964;42.144;24.730;2023-07-30T04:31:45;7.30;;;6.73;;
5876;SDS011;2964;42.144;24.730;2023-07-30T04:34:12;7.53;;;6.87;;
5876;SDS011;2964;42.144;24.730;2023-07-30T04:36:39;8.23;;;7.43;;
5876;SDS011;2964;42.144;24.730;2023-07-30T04:39:05;7.30;;;6.70;;
5876;SDS011;2964;42.144;24.730;2023-07-30T04:41:32;6.93;;;6.43;;
5876;SDS011;2964;42.144;24.730;2023-07-30T04:43:58;8.00;;;6.67;;
5876;SDS011;2964;42.144;24.730;2023-07-30T04:46:25;9.73;;;7.63;;
5876;SDS011;2964;42.144;24.730;2023-07-30T04:48:53;7.85;;;6.38;;
5876;SDS011;2964;42.144;24.730;2023-07-30T04:51:20;12.00;;;6.90;;
5876;SDS011;2964;42.144;24.730;2023-07-30T04:53:46;6.68;;;6.38;;
5876;SDS011;2964;42.144;24.730;2023-07-30T04:56:13;6.95;;;6.55;;
5876;SDS011;2964;42.144;24.730;2023-07-30T04:58:40;6.88;;;6.28;;
5876;SDS011;2964;42.144;24.730;2023-07-30T05:01:06;6.65;;;6.15;;
5876;SDS011;2964;42.144;24.730;2023-07-30T05:03:33;6.75;;;6.32;;
5876;SDS011;2964;42.144;24.730;2023-07-30T05:06:01;6.32;;;5.90;;
5876;SDS011;2964;42.144;24.730;2023-07-30T05:08:28;6.18;;;5.75;;
5876;SDS011;2964;42.144;24.730;2023-07-30T05:10:54;6.35;;;5.95;;
5876;SDS011;2964;42.144;24.730;2023-07-30T05:13:21;6.03;;;5.75;;
5876;SDS011;2964;42.144;24.730;2023-07-30T05:15:48;7.00;;;6.60;;
5876;SDS011;2964;42.144;24.730;2023-07-30T05:18:14;6.45;;;5.70;;
5876;SDS011;2964;42.144;24.730;2023-07-30T05:20:41;8.00;;;6.63;;
5876;SDS011;2964;42.144;24.730;2023-07-30T05:23:09;7.78;;;6.40;;
5876;SDS011;2964;42.144;24.730;2023-07-30T05:25:35;6.53;;;6.03;;
5876;SDS011;2964;42.144;24.730;2023-07-30T05:28:03;8.75;;;6.60;;
5876;SDS011;2964;42.144;24.730;2023-07-30T05:30:29;5.95;;;5.53;;
5876;SDS011;2964;42.144;24.730;2023-07-30T05:32:56;7.03;;;6.10;;
5876;SDS011;2964;42.144;24.730;2023-07-30T05:35:23;6.82;;;6.28;;
5876;SDS011;2964;42.144;24.730;2023-07-30T05:37:49;9.05;;;6.32;;
5876;SDS011;2964;42.144;24.730;2023-07-30T05:40:17;6.82;;;6.22;;
5876;SDS011;2964;42.144;24.730;2023-07-30T05:42:44;7.38;;;6.68;;
5876;SDS011;2964;42.144;24.730;2023-07-30T05:45:11;17.45;;;8.38;;
5876;SDS011;2964;42.144;24.730;2023-07-30T05:47:38;13.15;;;8.50;;
5876;SDS011;2964;42.144;24.730;2023-07-30T05:50:05;6.53;;;6.18;;
5876;SDS011;2964;42.144;24.730;2023-07-30T05:52:33;7.13;;;6.63;;
5876;SDS011;2964;42.144;24.730;2023-07-30T05:55:00;6.85;;;6.25;;
5876;SDS011;2964;42.144;24.730;2023-07-30T05:57:29;7.07;;;6.75;;
5876;SDS011;2964;42.144;24.730;2023-07-30T05:59:56;8.30;;;6.88;;
5876;SDS011;2964;42.144;24.730;2023-07-30T06:02:22;8.23;;;6.68;;
5876;SDS011;2964;42.144;24.730;2023-07-30T06:04:49;6.88;;;6.47;;
5876;SDS011;2964;42.144;24.730;2023-07-30T06:07:16;7.45;;;6.78;;
5876;SDS011;2964;42.144;24.730;2023-07-30T06:09:42;7.00;;;6.63;;
5876;SDS011;2964;42.144;24.730;2023-07-30T06:12:10;11.95;;;7.93;;
5876;SDS011;2964;42.144;24.730;2023-07-30T06:14:38;7.15;;;6.55;;
5876;SDS011;2964;42.144;24.730;2023-07-30T06:17:05;7.40;;;6.72;;
5876;SDS011;2964;42.144;24.730;2023-07-30T06:19:31;8.98;;;6.28;;
5876;SDS011;2964;42.144;24.730;2023-07-30T06:21:58;7.55;;;6.72;;
5876;SDS011;2964;42.144;24.730;2023-07-30T06:24:25;7.30;;;6.07;;
5876;SDS011;2964;42.144;24.730;2023-07-30T06:26:51;7.38;;;6.88;;
5876;SDS011;2964;42.144;24.730;2023-07-30T06:29:18;6.03;;;5.72;;
5876;SDS011;2964;42.144;24.730;2023-07-30T06:31:46;6.68;;;6.22;;
5876;SDS011;2964;42.144;24.730;2023-07-30T06:34:13;7.10;;;6.50;;
5876;SDS011;2964;42.144;24.730;2023-07-30T06:36:40;7.38;;;6.78;;
5876;SDS011;2964;42.144;24.730;2023-07-30T06:39:06;6.57;;;6.00;;
5876;SDS011;2964;42.144;24.730;2023-07-30T06:41:33;6.30;;;5.93;;
5876;SDS011;2964;42.144;24.730;2023-07-30T06:44:00;6.72;;;6.32;;
5876;SDS011;2964;42.144;24.730;2023-07-30T06:46:26;6.70;;;6.22;;
5876;SDS011;2964;42.144;24.730;2023-07-30T06:48:54;7.00;;;6.35;;
5876;SDS011;2964;42.144;24.730;2023-07-30T06:51:23;6.85;;;5.93;;
5876;SDS011;2964;42.144;24.730;2023-07-30T06:53:50;6.93;;;6.53;;
5876;SDS011;2964;42.144;24.730;2023-07-30T06:56:17;8.25;;;6.25;;
5876;SDS011;2964;42.144;24.730;2023-07-30T06:58:44;7.03;;;6.47;;
5876;SDS011;2964;42.144;24.730;2023-07-30T07:01:10;7.45;;;6.82;;
5876;SDS011;2964;42.144;24.730;2023-07-30T07:03:37;7.40;;;6.75;;
5876;SDS011;2964;42.144;24.730;2023-07-30T07:06:05;6.47;;;5.97;;
5876;SDS011;2964;42.144;24.730;2023-07-30T07:08:32;6.40;;;5.90;;
5876;SDS011;2964;42.144;24.730;2023-07-30T07:10:58;6.57;;;6.20;;
5876;SDS011;2964;42.144;24.730;2023-07-30T07:13:25;7.10;;;6.65;;
5876;SDS011;2964;42.144;24.730;2023-07-30T07:15:52;7.78;;;7.03;;
5876;SDS011;2964;42.144;24.730;2023-07-30T07:18:18;6.75;;;6.15;;
5876;SDS011;2964;42.144;24.730;2023-07-30T07:20:45;7.32;;;6.80;;
5876;SDS011;2964;42.144;24.730;2023-07-30T07:23:13;7.32;;;6.60;;
5876;SDS011;2964;42.144;24.730;2023-07-30T07:25:40;7.32;;;6.75;;
5876;SDS011;2964;42.144;24.730;2023-07-30T07:28:06;6.78;;;6.28;;
5876;SDS011;2964;42.144;24.730;2023-07-30T07:30:34;9.93;;;6.93;;
5876;SDS011;2964;42.144;24.730;2023-07-30T07:33:01;7.18;;;6.65;;
5876;SDS011;2964;42.144;24.730;2023-07-30T07:35:28;7.93;;;6.63;;
5876;SDS011;2964;42.144;24.730;2023-07-30T07:37:55;6.93;;;6.32;;
5876;SDS011;2964;42.144;24.730;2023-07-30T07:40:23;6.35;;;5.95;;
5876;SDS011;2964;42.144;24.730;2023-07-30T07:42:50;6.72;;;6.32;;
5876;SDS011;2964;42.144;24.730;2023-07-30T07:45:16;6.65;;;5.90;;
5876;SDS011;2964;42.144;24.730;2023-07-30T07:47:43;7.13;;;6.13;;
5876;SDS011;2964;42.144;24.730;2023-07-30T07:50:10;6.90;;;6.50;;
5876;SDS011;2964;42.144;24.730;2023-07-30T07:52:36;6.88;;;6.43;;
5876;SDS011;2964;42.144;24.730;2023-07-30T07:55:03;8.40;;;6.22;;
5876;SDS011;2964;42.144;24.730;2023-07-30T07:57:32;6.45;;;6.15;;
5876;SDS011;2964;42.144;24.730;2023-07-30T07:59:59;7.40;;;6.53;;
5876;SDS011;2964;42.144;24.730;2023-07-30T08:02:25;6.75;;;6.22;;
5876;SDS011;2964;42.144;24.730;2023-07-30T08:04:52;10.95;;;7.07;;
5876;SDS011;2964;42.144;24.730;2023-07-30T08:07:18;7.40;;;6.85;;
5876;SDS011;2964;42.144;24.730;2023-07-30T08:09:45;7.78;;;7.10;;
5876;SDS011;2964;42.144;24.730;2023-07-30T08:12:12;6.38;;;6.07;;
5876;SDS011;2964;42.144;24.730;2023-07-30T08:14:40;6.45;;;6.05;;
5876;SDS011;2964;42.144;24.730;2023-07-30T08:17:07;6.57;;;5.93;;
5876;SDS011;2964;42.144;24.730;2023-07-30T08:19:33;6.18;;;5.82;;
5876;SDS011;2964;42.144;24.730;2023-07-30T08:22:00;6.78;;;5.85;;
5876;SDS011;2964;42.144;24.730;2023-07-30T08:24:27;5.95;;;5.55;;
5876;SDS011;2964;42.144;24.730;2023-07-30T08:26:53;6.93;;;6.53;;
5876;SDS011;2964;42.144;24.730;2023-07-30T08:29:21;5.82;;;5.38;;
5876;SDS011;2964;42.144;24.730;2023-07-30T08:31:49;6.93;;;6.60;;
5876;SDS011;2964;42.144;24.730;2023-07-30T08:34:16;6.13;;;5.82;;
5876;SDS011;2964;42.144;24.730;2023-07-30T08:36:42;13.90;;;7.35;;
5876;SDS011;2964;42.144;24.730;2023-07-30T08:39:09;6.95;;;6.60;;
5876;SDS011;2964;42.144;24.730;2023-07-30T08:41:36;7.75;;;7.03;;
5876;SDS011;2964;42.144;24.730;2023-07-30T08:44:03;7.50;;;7.00;;
5876;SDS011;2964;42.144;24.730;2023-07-30T08:46:30;7.10;;;6.80;;
5876;SDS011;2964;42.144;24.730;2023-07-30T08:48:58;7.45;;;6.95;;
5876;SDS011;2964;42.144;24.730;2023-07-30T08:51:26;7.13;;;6.53;;
5876;SDS011;2964;42.144;24.730;2023-07-30T08:53:53;7.68;;;7.15;;
5876;SDS011;2964;42.144;24.730;2023-07-30T08:56:22;7.57;;;7.05;;
5876;SDS011;2964;42.144;24.730;2023-07-30T08:58:49;8.65;;;6.32;;
5876;SDS011;2964;42.144;24.730;2023-07-30T09:01:18;6.63;;;6.28;;
5876;SDS011;2964;42.144;24.730;2023-07-30T09:03:46;6.93;;;6.53;;
5876;SDS011;2964;42.144;24.730;2023-07-30T09:06:17;6.63;;;6.22;;
5876;SDS011;2964;42.144;24.730;2023-07-30T09:08:44;7.32;;;6.90;;
5876;SDS011;2964;42.144;24.730;2023-07-30T09:11:11;7.55;;;6.82;;
5876;SDS011;2964;42.144;24.730;2023-07-30T09:13:38;8.05;;;7.22;;
5876;SDS011;2964;42.144;24.730;2023-07-30T09:16:08;9.63;;;6.60;;
5876;SDS011;2964;42.144;24.730;2023-07-30T09:18:39;7.03;;;6.45;;
5876;SDS011;2964;42.144;24.730;2023-07-30T09:21:07;7.05;;;6.22;;
5876;SDS011;2964;42.144;24.730;2023-07-30T09:23:40;6.28;;;5.97;;
5876;SDS011;2964;42.144;24.730;2023-07-30T09:26:07;6.65;;;6.25;;
5876;SDS011;2964;42.144;24.730;2023-07-30T09:28:34;7.07;;;6.45;;
5876;SDS011;2964;42.144;24.730;2023-07-30T09:31:01;6.95;;;6.38;;
5876;SDS011;2964;42.144;24.730;2023-07-30T09:33:28;6.70;;;6.20;;
5876;SDS011;2964;42.144;24.730;2023-07-30T09:35:55;7.32;;;6.93;;
5876;SDS011;2964;42.144;24.730;2023-07-30T09:38:21;6.85;;;6.30;;
5876;SDS011;2964;42.144;24.730;2023-07-30T09:40:49;7.72;;;7.25;;
5876;SDS011;2964;42.144;24.730;2023-07-30T09:43:16;6.63;;;6.28;;
5876;SDS011;2964;42.144;24.730;2023-07-30T09:45:44;6.88;;;6.57;;
5876;SDS011;2964;42.144;24.730;2023-07-30T09:48:12;6.75;;;6.15;;
5876;SDS011;2964;42.144;24.730;2023-07-30T09:50:40;7.45;;;6.72;;
5876;SDS011;2964;42.144;24.730;2023-07-30T09:53:09;8.48;;;6.75;;
5876;SDS011;2964;42.144;24.730;2023-07-30T09:55:37;6.95;;;6.45;;
5876;SDS011;2964;42.144;24.730;2023-07-30T09:58:05;7.63;;;7.22;;
5876;SDS011;2964;42.144;24.730;2023-07-30T10:00:36;7.05;;;6.35;;
5876;SDS011;2964;42.144;24.730;2023-07-30T10:03:02;6.70;;;6.18;;
5876;SDS011;2964;42.144;24.730;2023-07-30T10:05:32;7.72;;;6.55;;
5876;SDS011;2964;42.144;24.730;2023-07-30T10:08:02;7.43;;;6.78;;
5876;SDS011;2964;42.144;24.730;2023-07-30T10:10:33;7.30;;;6.70;;
5876;SDS011;2964;42.144;24.730;2023-07-30T10:13:01;7.25;;;6.75;;
5876;SDS011;2964;42.144;24.730;2023-07-30T10:15:34;7.47;;;6.90;;
5876;SDS011;2964;42.144;24.730;2023-07-30T10:18:01;7.80;;;7.20;;
5876;SDS011;2964;42.144;24.730;2023-07-30T10:20:28;7.22;;;6.68;;
5876;SDS011;2964;42.144;24.730;2023-07-30T10:22:56;7.60;;;7.20;;
5876;SDS011;2964;42.144;24.730;2023-07-30T10:25:27;7.28;;;6.70;;
5876;SDS011;2964;42.144;24.730;2023-07-30T10:27:55;7.68;;;7.03;;
5876;SDS011;2964;42.144;24.730;2023-07-30T10:30:24;8.63;;;6.82;;
5876;SDS011;2964;42.144;24.730;2023-07-30T10:32:59;7.28;;;6.88;;
5876;SDS011;2964;42.144;24.730;2023-07-30T10:38:14;6.90;;;6.40;;
5876;SDS011;2964;42.144;24.730;2023-07-30T10:40:42;7.10;;;6.70;;
5876;SDS011;2964;42.144;24.730;2023-07-30T10:43:26;7.78;;;7.28;;
5876;SDS011;2964;42.144;24.730;2023-07-30T10:45:54;14.40;;;6.95;;
5876;SDS011;2964;42.144;24.730;2023-07-30T10:48:30;7.45;;;6.70;;
5876;SDS011;2964;42.144;24.730;2023-07-30T10:50:58;7.70;;;6.97;;
5876;SDS011;2964;42.144;24.730;2023-07-30T10:53:26;8.18;;;7.57;;
5876;SDS011;2964;42.144;24.730;2023-07-30T10:55:53;7.32;;;6.78;;
5876;SDS011;2964;42.144;24.730;2023-07-30T10:58:24;6.65;;;6.13;;
5876;SDS011;2964;42.144;24.730;2023-07-30T11:00:51;8.02;;;6.55;;
5876;SDS011;2964;42.144;24.730;2023-07-30T11:03:18;6.10;;;5.80;;
5876;SDS011;2964;42.144;24.730;2023-07-30T11:05:47;6.13;;;5.82;;
5876;SDS011;2964;42.144;24.730;2023-07-30T11:08:14;6.53;;;6.13;;
5876;SDS011;2964;42.144;24.730;2023-07-30T11:10:41;6.35;;;6.05;;
5876;SDS011;2964;42.144;24.730;2023-07-30T11:13:09;6.75;;;6.25;;
5876;SDS011;2964;42.144;24.730;2023-07-30T11:15:40;7.70;;;6.47;;
5876;SDS011;2964;42.144;24.730;2023-07-30T11:18:07;6.60;;;6.22;;
5876;SDS011;2964;42.144;24.730;2023-07-30T11:20:34;10.02;;;6.25;;
5876;SDS011;2964;42.144;24.730;2023-07-30T11:23:03;7.10;;;6.68;;
5876;SDS011;2964;42.144;24.730;2023-07-30T11:25:45;7.38;;;6.63;;
5876;SDS011;2964;42.144;24.730;2023-07-30T11:28:12;6.40;;;6.10;;
5876;SDS011;2964;42.144;24.730;2023-07-30T11:30:38;6.07;;;5.78;;
5876;SDS011;2964;42.144;24.730;2023-07-30T11:33:05;7.32;;;6.93;;
5876;SDS011;2964;42.144;24.730;2023-07-30T11:35:32;6.68;;;6.10;;
5876;SDS011;2964;42.144;24.730;2023-07-30T11:37:59;7.10;;;6.72;;
5876;SDS011;2964;42.144;24.730;2023-07-30T11:40:27;6.38;;;6.07;;
5876;SDS011;2964;42.144;24.730;2023-07-30T11:42:54;6.47;;;6.18;;
5876;SDS011;2964;42.144;24.730;2023-07-30T11:45:21;6.35;;;6.05;;
5876;SDS011;2964;42.144;24.730;2023-07-30T11:47:49;7.35;;;6.68;;
5876;SDS011;2964;42.144;24.730;2023-07-30T11:50:17;6.32;;;5.88;;
5876;SDS011;2964;42.144;24.730;2023-07-30T11:52:53;6.43;;;5.72;;
5876;SDS011;2964;42.144;24.730;2023-07-30T11:55:20;6.10;;;5.70;;
5876;SDS011;2964;42.144;24.730;2023-07-30T11:57:50;6.03;;;5.72;;
5876;SDS011;2964;42.144;24.730;2023-07-30T12:00:20;6.50;;;6.13;;
5876;SDS011;2964;42.144;24.730;2023-07-30T12:02:47;6.60;;;6.28;;
5876;SDS011;2964;42.144;24.730;2023-07-30T12:05:16;6.90;;;6.55;;
5876;SDS011;2964;42.144;24.730;2023-07-30T12:07:43;6.57;;;6.28;;
5876;SDS011;2964;42.144;24.730;2023-07-30T12:10:10;6.63;;;6.22;;
5876;SDS011;2964;42.144;24.730;2023-07-30T12:12:43;5.97;;;5.68;;
5876;SDS011;2964;42.144;24.730;2023-07-30T12:15:11;6.22;;;5.93;;
5876;SDS011;2964;42.144;24.730;2023-07-30T12:17:38;7.15;;;6.65;;
5876;SDS011;2964;42.144;24.730;2023-07-30T12:20:05;7.32;;;6.68;;
5876;SDS011;2964;42.144;24.730;2023-07-30T12:22:32;6.72;;;6.07;;
5876;SDS011;2964;42.144;24.730;2023-07-30T12:25:00;7.50;;;6.95;;
5876;SDS011;2964;42.144;24.730;2023-07-30T12:27:27;7.03;;;6.70;;
5876;SDS011;2964;42.144;24.730;2023-07-30T12:29:54;6.30;;;5.88;;
5876;SDS011;2964;42.144;24.730;2023-07-30T12:32:22;6.43;;;5.90;;
5876;SDS011;2964;42.144;24.730;2023-07-30T12:34:49;7.32;;;6.72;;
5876;SDS011;2964;42.144;24.730;2023-07-30T12:37:16;6.57;;;6.03;;
5876;SDS011;2964;42.144;24.730;2023-07-30T12:39:42;6.80;;;6.28;;
5876;SDS011;2964;42.144;24.730;2023-07-30T12:42:09;6.25;;;5.95;;
5876;SDS011;2964;42.144;24.730;2023-07-30T12:44:36;6.45;;;6.15;;
5876;SDS011;2964;42.144;24.730;2023-07-30T12:47:02;7.05;;;6.65;;
5876;SDS011;2964;42.144;24.730;2023-07-30T12:49:31;6.55;;;6.15;;
5876;SDS011;2964;42.144;24.730;2023-07-30T12:51:57;6.95;;;6.55;;
5876;SDS011;2964;42.144;24.730;2023-07-30T12:54:24;6.93;;;6.53;;
5876;SDS011;2964;42.144;24.730;2023-07-30T12:56:51;7.00;;;6.60;;
5876;SDS011;2964;42.144;24.730;2023-07-30T12:59:17;7.00;;;6.47;;
5876;SDS011;2964;42.144;24.730;2023-07-30T13:01:44;6.78;;;6.47;;
5876;SDS011;2964;42.144;24.730;2023-07-30T13:04:11;6.85;;;6.45;;
5876;SDS011;2964;42.144;24.730;2023-07-30T13:06:39;6.43;;;6.13;;
5876;SDS011;2964;42.144;24.730;2023-07-30T13:09:05;6.88;;;6.22;;
5876;SDS011;2964;42.144;24.730;2023-07-30T13:11:32;6.93;;;6.53;;
5876;SDS011;2964;42.144;24.730;2023-07-30T13:13:58;7.03;;;6.65;;
5876;SDS011;2964;42.144;24.730;2023-07-30T13:16:25;7.20;;;6.70;;
5876;SDS011;2964;42.144;24.730;2023-07-30T13:18:52;6.43;;;5.95;;
5876;SDS011;2964;42.144;24.730;2023-07-30T13:21:22;6.95;;;6.47;;
5876;SDS011;2964;42.144;24.730;2023-07-30T13:23:50;7.57;;;6.80;;
5876;SDS011;2964;42.144;24.730;2023-07-30T13:26:16;6.88;;;6.47;;
5876;SDS011;2964;42.144;24.730;2023-07-30T13:28:44;9.35;;;6.28;;
5876;SDS011;2964;42.144;24.730;2023-07-30T13:31:10;6.45;;;6.15;;
5876;SDS011;2964;42.144;24.730;2023-07-30T13:33:37;6.88;;;6.57;;
5876;SDS011;2964;42.144;24.730;2023-07-30T13:36:04;5.97;;;5.57;;
5876;SDS011;2964;42.144;24.730;2023-07-30T13:38:31;6.75;;;6.32;;
5876;SDS011;2964;42.144;24.730;2023-07-30T13:40:59;7.38;;;6.85;;
5876;SDS011;2964;42.144;24.730;2023-07-30T13:43:26;8.07;;;7.68;;
5876;SDS011;2964;42.144;24.730;2023-07-30T13:45:53;8.40;;;7.80;;
5876;SDS011;2964;42.144;24.730;2023-07-30T13:48:19;7.45;;;6.93;;
5876;SDS011;2964;42.144;24.730;2023-07-30T13:50:46;8.10;;;7.60;;
5876;SDS011;2964;42.144;24.730;2023-07-30T13:53:13;7.38;;;6.88;;
5876;SDS011;2964;42.144;24.730;2023-07-30T13:55:39;7.57;;;7.03;;
5876;SDS011;2964;42.144;24.730;2023-07-30T13:58:08;7.78;;;7.07;;
5876;SDS011;2964;42.144;24.730;2023-07-30T14:00:34;7.25;;;6.85;;
5876;SDS011;2964;42.144;24.730;2023-07-30T14:03:01;7.05;;;6.53;;
5876;SDS011;2964;42.144;24.730;2023-07-30T14:05:28;6.95;;;6.65;;
5876;SDS011;2964;42.144;24.730;2023-07-30T14:07:55;6.70;;;6.20;;
5876;SDS011;2964;42.144;24.730;2023-07-30T14:10:22;6.88;;;6.22;;
5876;SDS011;2964;42.144;24.730;2023-07-30T14:12:49;6.18;;;5.88;;
5876;SDS011;2964;42.144;24.730;2023-07-30T14:15:17;6.50;;;6.13;;
5876;SDS011;2964;42.144;24.730;2023-07-30T14:17:44;6.47;;;6.18;;
5876;SDS011;2964;42.144;24.730;2023-07-30T14:20:10;6.88;;;6.38;;
5876;SDS011;2964;42.144;24.730;2023-07-30T14:22:37;6.55;;;6.25;;
5876;SDS011;2964;42.144;24.730;2023-07-30T14:25:04;6.63;;;6.32;;
5876;SDS011;2964;42.144;24.730;2023-07-30T14:27:31;6.65;;;6.15;;
5876;SDS011;2964;42.144;24.730;2023-07-30T14:29:58;6.65;;;6.25;;
5876;SDS011;2964;42.144;24.730;2023-07-30T14:32:26;6.55;;;6.25;;
5876;SDS011;2964;42.144;24.730;2023-07-30T14:34:53;6.35;;;5.93;;
5876;SDS011;2964;42.144;24.730;2023-07-30T14:37:20;6.40;;;6.10;;
5876;SDS011;2964;42.144;24.730;2023-07-30T14:39:46;6.38;;;5.88;;
5876;SDS011;2964;42.144;24.730;2023-07-30T14:42:13;7.00;;;6.65;;
5876;SDS011;2964;42.144;24.730;2023-07-30T14:44:40;6.10;;;5.80;;
5876;SDS011;2964;42.144;24.730;2023-07-30T14:47:06;6.85;;;6.55;;
5876;SDS011;2964;42.144;24.730;2023-07-30T14:49:36;6.85;;;6.35;;
5876;SDS011;2964;42.144;24.730;2023-07-30T14:52:04;6.10;;;5.63;;
5876;SDS011;2964;42.144;24.730;2023-07-30T14:54:31;6.30;;;5.78;;
5876;SDS011;2964;42.144;24.730;2023-07-30T14:56:57;6.55;;;6.07;;
5876;SDS011;2964;42.144;24.730;2023-07-30T14:59:24;6.28;;;5.97;;
5876;SDS011;2964;42.144;24.730;2023-07-30T15:01:51;6.40;;;6.03;;
5876;SDS011;2964;42.144;24.730;2023-07-30T15:04:18;6.45;;;6.05;;